createdAt,value
2018-02-17T00:00:28.979Z,3.10
2018-02-17T00:01:31.486Z,3.40
2018-02-17T00:02:33.980Z,3.27
2018-02-17T00:03:36.472Z,3.47
2018-02-17T00:04:38.957Z,3.20
2018-02-17T00:05:41.494Z,3.63
2018-02-17T00:06:43.977Z,3.27
2018-02-17T00:07:46.457Z,3.47
2018-02-17T00:08:48.946Z,3.10
2018-02-17T00:09:51.412Z,3.57
2018-02-17T00:10:53.892Z,3.17
2018-02-17T00:11:56.355Z,3.00
2018-02-17T00:12:58.858Z,3.40
2018-02-17T00:14:01.347Z,3.70
2018-02-17T00:15:03.812Z,2.80
2018-02-17T00:16:06.290Z,2.87
2018-02-17T00:17:08.759Z,3.83
2018-02-17T00:18:11.223Z,3.40
2018-02-17T00:19:13.708Z,2.90
2018-02-17T00:20:16.196Z,3.13
2018-02-17T00:21:18.659Z,3.30
2018-02-17T00:22:21.119Z,2.97
2018-02-17T00:23:23.614Z,3.10
2018-02-17T00:24:26.085Z,3.20
2018-02-17T00:25:28.576Z,3.87
2018-02-17T00:26:31.048Z,2.90
2018-02-17T00:27:33.511Z,3.00
2018-02-17T00:28:36.018Z,3.33
2018-02-17T00:29:38.491Z,3.07
2018-02-17T00:30:40.974Z,2.90
2018-02-17T00:31:43.509Z,3.23
2018-02-17T00:32:45.985Z,2.93
2018-02-17T00:33:48.509Z,3.57
2018-02-17T00:34:50.996Z,3.03
2018-02-17T00:35:53.497Z,2.93
2018-02-17T00:36:55.977Z,3.37
2018-02-17T00:37:58.447Z,3.17
2018-02-17T00:39:00.951Z,2.57
2018-02-17T00:40:03.437Z,3.00
2018-02-17T00:41:05.925Z,3.00
2018-02-17T00:42:08.419Z,3.00
2018-02-17T00:43:10.902Z,3.27
2018-02-17T00:44:13.439Z,2.90
2018-02-17T00:45:15.926Z,2.53
2018-02-17T00:46:18.391Z,3.00
2018-02-17T00:47:20.854Z,2.67
2018-02-17T00:48:23.341Z,3.23
2018-02-17T00:49:25.839Z,3.25
2018-02-17T00:50:28.307Z,2.97
2018-02-17T00:51:30.787Z,3.17
2018-02-17T00:52:33.265Z,3.33
2018-02-17T00:53:35.755Z,3.17
2018-02-17T00:54:38.269Z,3.00
2018-02-17T00:55:40.757Z,3.13
2018-02-17T00:56:43.219Z,2.73
2018-02-17T00:57:45.701Z,2.77
2018-02-17T00:58:48.192Z,3.17
2018-02-17T00:59:50.679Z,2.60
2018-02-17T01:00:53.165Z,2.70
2018-02-17T01:01:55.654Z,3.10
2018-02-17T01:02:58.127Z,2.50
2018-02-17T01:04:00.591Z,2.80
2018-02-17T01:05:03.080Z,2.70
2018-02-17T01:06:05.547Z,2.60
2018-02-17T01:07:08.034Z,2.93
2018-02-17T01:08:10.512Z,2.25
2018-02-17T01:09:12.975Z,2.73
2018-02-17T01:10:15.479Z,2.53
2018-02-17T01:11:17.969Z,3.10
2018-02-17T01:12:20.444Z,2.70
2018-02-17T01:13:22.933Z,2.75
2018-02-17T01:14:25.433Z,2.70
2018-02-17T01:15:27.934Z,2.50
2018-02-17T01:16:30.431Z,2.43
2018-02-17T01:17:32.921Z,2.70
2018-02-17T01:18:35.409Z,3.10
2018-02-17T01:19:37.891Z,2.80
2018-02-17T01:20:40.393Z,2.93
2018-02-17T01:21:42.854Z,2.53
2018-02-17T01:22:45.337Z,3.10
2018-02-17T01:23:47.817Z,2.47
2018-02-17T01:24:50.299Z,2.78
2018-02-17T01:25:52.809Z,2.50
2018-02-17T01:26:55.275Z,2.73
2018-02-17T01:27:57.765Z,2.35
2018-02-17T01:29:00.239Z,2.62
2018-02-17T01:30:02.729Z,2.60
2018-02-17T01:31:05.233Z,2.60
2018-02-17T01:32:07.730Z,2.55
2018-02-17T01:33:10.219Z,2.65
2018-02-17T01:34:12.702Z,2.70
2018-02-17T01:35:15.193Z,2.40
2018-02-17T01:36:17.696Z,2.30
2018-02-17T01:37:20.185Z,2.65
2018-02-17T01:38:22.673Z,2.80
2018-02-17T01:39:25.141Z,2.40
2018-02-17T01:40:27.622Z,2.45
2018-02-17T01:41:30.108Z,2.70
2018-02-17T01:42:32.592Z,2.45
2018-02-17T01:43:35.089Z,2.50
2018-02-17T01:44:37.573Z,2.60
2018-02-17T01:45:40.065Z,2.70
2018-02-17T01:46:42.574Z,2.67
2018-02-17T01:47:45.047Z,2.47
2018-02-17T01:48:47.542Z,2.95
2018-02-17T01:49:50.104Z,2.43
2018-02-17T01:50:52.580Z,2.65
2018-02-17T01:51:55.079Z,2.30
2018-02-17T01:52:57.551Z,2.70
2018-02-17T01:54:00.025Z,2.30
2018-02-17T01:55:02.513Z,2.30
2018-02-17T01:56:05.003Z,2.70
2018-02-17T01:57:07.517Z,2.40
2018-02-17T01:58:09.990Z,2.33
2018-02-17T01:59:12.471Z,2.40
2018-02-17T02:00:14.953Z,2.65
2018-02-17T02:01:17.429Z,2.40
2018-02-17T02:02:19.938Z,2.30
2018-02-17T02:03:22.429Z,2.35
2018-02-17T02:04:24.906Z,2.40
2018-02-17T02:05:27.383Z,2.05
2018-02-17T02:06:29.860Z,2.60
2018-02-17T02:07:32.361Z,2.10
2018-02-17T02:08:34.850Z,2.17
2018-02-17T02:09:37.342Z,2.40
2018-02-17T02:10:39.820Z,2.42
2018-02-17T02:11:42.299Z,2.50
2018-02-17T02:12:44.800Z,2.42
2018-02-17T02:13:47.289Z,2.40
2018-02-17T02:14:49.790Z,2.30
2018-02-17T02:15:52.278Z,1.87
2018-02-17T02:16:54.755Z,2.20
2018-02-17T02:17:57.253Z,2.60
2018-02-17T02:18:59.717Z,2.30
2018-02-17T02:20:02.198Z,2.40
2018-02-17T02:21:04.669Z,2.05
2018-02-17T02:22:07.131Z,2.50
2018-02-17T02:23:09.661Z,1.85
2018-02-17T02:24:12.139Z,2.25
2018-02-17T02:25:14.629Z,2.50
2018-02-17T02:26:17.104Z,2.15
2018-02-17T02:27:19.639Z,2.10
2018-02-17T02:28:22.103Z,1.90
2018-02-17T02:29:24.584Z,2.35
2018-02-17T02:30:27.078Z,2.20
2018-02-17T02:31:29.570Z,2.70
2018-02-17T02:32:32.069Z,2.17
2018-02-17T02:33:34.581Z,2.28
2018-02-17T02:34:37.071Z,2.15
2018-02-17T02:35:39.566Z,1.80
2018-02-17T02:36:42.059Z,2.20
2018-02-17T02:37:44.534Z,1.92
2018-02-17T02:38:47.047Z,2.17
2018-02-17T02:39:49.527Z,2.30
2018-02-17T02:40:52.021Z,2.37
2018-02-17T02:41:54.511Z,2.10
2018-02-17T02:42:57.147Z,2.22
2018-02-17T02:43:59.674Z,2.37
2018-02-17T02:45:02.155Z,2.10
2018-02-17T02:46:04.645Z,2.30
2018-02-17T02:47:07.130Z,1.80
2018-02-17T02:48:09.607Z,2.20
2018-02-17T02:49:12.112Z,2.90
2018-02-17T02:50:14.626Z,2.20
2018-02-17T02:51:17.130Z,1.95
2018-02-17T02:52:19.611Z,1.77
2018-02-17T02:53:22.072Z,2.20
2018-02-17T02:54:24.592Z,2.10
2018-02-17T02:55:27.078Z,2.12
2018-02-17T02:56:29.556Z,2.00
2018-02-17T02:57:32.036Z,1.70
2018-02-17T02:58:34.520Z,1.90
2018-02-17T02:59:37.084Z,2.05
2018-02-17T03:00:39.561Z,1.85
2018-02-17T03:01:42.047Z,2.12
2018-02-17T03:02:44.539Z,2.05
2018-02-17T03:03:47.022Z,2.20
2018-02-17T03:04:49.524Z,1.90
2018-02-17T03:05:52.114Z,1.92
2018-02-17T03:06:54.600Z,1.87
2018-02-17T03:07:57.088Z,1.92
2018-02-17T03:08:59.564Z,1.80
2018-02-17T03:10:02.070Z,1.70
2018-02-17T03:11:04.564Z,1.75
2018-02-17T03:12:07.060Z,1.80
2018-02-17T03:13:09.532Z,1.87
2018-02-17T03:14:12.025Z,1.80
2018-02-17T03:15:14.533Z,1.95
2018-02-17T03:16:17.021Z,2.10
2018-02-17T03:17:19.496Z,1.85
2018-02-17T03:18:21.966Z,1.75
2018-02-17T03:19:24.456Z,2.03
2018-02-17T03:20:26.963Z,2.12
2018-02-17T03:21:29.440Z,1.60
2018-02-17T03:22:31.924Z,1.80
2018-02-17T03:23:34.417Z,1.85
2018-02-17T03:24:36.891Z,1.85
2018-02-17T03:25:39.394Z,1.70
2018-02-17T03:26:41.885Z,1.73
2018-02-17T03:27:44.386Z,2.03
2018-02-17T03:28:46.870Z,1.90
2018-02-17T03:29:49.359Z,1.87
2018-02-17T03:30:51.851Z,1.92
2018-02-17T03:31:54.328Z,1.80
2018-02-17T03:32:56.803Z,1.85
2018-02-17T03:33:59.289Z,1.60
2018-02-17T03:35:01.772Z,2.03
2018-02-17T03:36:04.298Z,1.80
2018-02-17T03:37:06.787Z,2.10
2018-02-17T03:38:09.278Z,1.85
2018-02-17T03:39:11.751Z,1.77
2018-02-17T03:40:14.238Z,1.90
2018-02-17T03:41:16.736Z,1.75
2018-02-17T03:42:19.215Z,1.85
2018-02-17T03:43:21.704Z,1.73
2018-02-17T03:44:24.183Z,1.90
2018-02-17T03:45:26.655Z,1.70
2018-02-17T03:46:29.147Z,1.77
2018-02-17T03:47:31.639Z,2.15
2018-02-17T03:48:34.120Z,2.12
2018-02-17T03:49:36.612Z,1.67
2018-02-17T03:50:39.097Z,1.98
2018-02-17T03:51:41.610Z,1.80
2018-02-17T03:52:44.092Z,1.77
2018-02-17T03:53:46.623Z,1.65
2018-02-17T03:54:49.126Z,1.60
2018-02-17T03:55:51.611Z,1.55
2018-02-17T03:56:54.117Z,1.73
2018-02-17T03:57:56.615Z,1.85
2018-02-17T03:58:59.091Z,1.73
2018-02-17T04:00:01.603Z,1.60
2018-02-17T04:01:04.107Z,1.75
2018-02-17T04:02:06.631Z,1.77
2018-02-17T04:03:09.111Z,1.52
2018-02-17T04:04:11.601Z,1.80
2018-02-17T04:05:14.094Z,1.70
2018-02-17T04:06:16.598Z,1.50
2018-02-17T04:07:19.116Z,1.62
2018-02-17T04:08:21.600Z,2.00
2018-02-17T04:09:24.078Z,1.80
2018-02-17T04:10:26.548Z,1.80
2018-02-17T04:11:29.039Z,2.05
2018-02-17T04:12:31.531Z,1.77
2018-02-17T04:13:34.004Z,1.75
2018-02-17T04:14:36.489Z,1.67
2018-02-17T04:15:38.984Z,1.50
2018-02-17T04:16:41.460Z,1.65
2018-02-17T04:17:43.951Z,1.58
2018-02-17T04:18:46.443Z,1.90
2018-02-17T04:19:48.933Z,1.70
2018-02-17T04:20:51.421Z,1.70
2018-02-17T04:21:53.912Z,1.80
2018-02-17T04:22:56.435Z,1.67
2018-02-17T04:23:58.922Z,1.60
2018-02-17T04:25:01.446Z,1.75
2018-02-17T04:26:03.932Z,2.00
2018-02-17T04:27:06.413Z,1.40
2018-02-17T04:28:08.922Z,1.70
2018-02-17T04:29:11.412Z,1.30
2018-02-17T04:30:13.913Z,1.55
2018-02-17T04:31:16.409Z,1.70
2018-02-17T04:32:18.881Z,1.62
2018-02-17T04:33:21.393Z,1.70
2018-02-17T04:34:23.868Z,1.83
2018-02-17T04:35:26.343Z,1.70
2018-02-17T04:36:28.826Z,1.75
2018-02-17T04:37:31.343Z,1.30
2018-02-17T04:38:33.844Z,1.67
2018-02-17T04:39:51.209Z,2.12
2018-02-17T04:40:59.142Z,1.80
2018-02-17T04:42:15.517Z,1.52
2018-02-17T04:45:04.417Z,1.60
2018-02-17T04:47:52.744Z,1.37
2018-02-17T04:48:56.165Z,1.37
2018-02-17T04:49:59.015Z,1.77
2018-02-17T04:51:02.287Z,1.70
2018-02-17T04:52:10.379Z,1.45
2018-02-17T04:53:18.569Z,1.65
2018-02-17T04:54:21.086Z,1.77
2018-02-17T04:55:24.052Z,1.30
2018-02-17T04:56:32.235Z,1.58
2018-02-17T04:57:46.477Z,1.60
2018-02-17T04:58:54.653Z,1.65
2018-02-17T05:00:02.754Z,1.65
2018-02-17T05:01:05.615Z,1.62
2018-02-17T05:02:11.987Z,1.60
2018-02-17T05:03:15.925Z,1.75
2018-02-17T05:05:58.393Z,1.50
2018-02-17T05:07:07.322Z,1.30
2018-02-17T05:08:15.573Z,1.60
2018-02-17T05:09:18.069Z,1.80
2018-02-17T05:10:20.559Z,1.55
2018-02-17T05:11:23.060Z,1.80
2018-02-17T05:12:25.546Z,1.50
2018-02-17T05:13:28.042Z,1.40
2018-02-17T05:14:33.486Z,1.60
2018-02-17T05:15:36.901Z,1.50
2018-02-17T05:16:39.413Z,1.50
2018-02-17T05:17:47.485Z,1.25
2018-02-17T05:18:53.555Z,1.48
2018-02-17T05:21:34.807Z,1.40
2018-02-17T05:22:45.838Z,1.60
2018-02-17T05:23:51.922Z,1.10
2018-02-17T05:26:32.067Z,1.37
2018-02-17T05:29:19.763Z,1.35
2018-02-17T05:30:24.649Z,1.62
2018-02-17T05:31:27.142Z,1.42
2018-02-17T05:32:29.633Z,1.25
2018-02-17T05:35:28.219Z,1.75
2018-02-17T05:36:45.579Z,1.37
2018-02-17T05:37:48.082Z,1.50
2018-02-17T05:39:05.474Z,1.50
2018-02-17T05:40:09.749Z,1.60
2018-02-17T05:41:12.227Z,1.30
2018-02-17T05:42:19.315Z,1.70
2018-02-17T05:43:21.794Z,1.10
2018-02-17T05:44:25.881Z,1.30
2018-02-17T05:45:30.785Z,1.30
2018-02-17T05:46:35.211Z,1.55
2018-02-17T05:47:40.685Z,1.30
2018-02-17T05:48:43.194Z,1.37
2018-02-17T05:49:50.258Z,1.58
2018-02-17T05:50:52.728Z,1.53
2018-02-17T05:51:55.225Z,1.20
2018-02-17T05:52:57.702Z,1.20
2018-02-17T05:54:00.193Z,1.20
2018-02-17T05:55:02.720Z,1.42
2018-02-17T05:56:05.212Z,1.40
2018-02-17T05:57:07.694Z,1.70
2018-02-17T05:58:10.181Z,1.37
2018-02-17T05:59:12.694Z,1.70
2018-02-17T06:00:15.203Z,1.20
2018-02-17T06:01:17.678Z,1.40
2018-02-17T06:02:20.156Z,1.05
2018-02-17T06:03:22.633Z,1.20
2018-02-17T06:04:25.201Z,1.23
2018-02-17T06:05:27.761Z,1.37
2018-02-17T06:06:30.227Z,1.20
2018-02-17T06:07:32.714Z,1.52
2018-02-17T06:08:35.201Z,1.20
2018-02-17T06:09:37.699Z,1.90
2018-02-17T06:10:40.209Z,1.45
2018-02-17T06:11:42.687Z,1.30
2018-02-17T06:12:45.174Z,1.40
2018-02-17T06:13:47.666Z,1.30
2018-02-17T06:14:50.158Z,1.00
2018-02-17T06:15:52.665Z,1.43
2018-02-17T06:16:55.147Z,1.40
2018-02-17T06:17:57.624Z,1.10
2018-02-17T06:19:00.118Z,1.17
2018-02-17T06:20:02.600Z,1.40
2018-02-17T06:21:05.125Z,1.23
2018-02-17T06:22:07.613Z,1.20
2018-02-17T06:23:10.089Z,1.40
2018-02-17T06:24:12.571Z,1.30
2018-02-17T06:25:15.066Z,1.30
2018-02-17T06:26:17.563Z,1.40
2018-02-17T06:27:20.024Z,1.27
2018-02-17T06:28:22.495Z,1.30
2018-02-17T06:29:24.984Z,1.20
2018-02-17T06:30:27.490Z,1.45
2018-02-17T06:31:30.008Z,1.60
2018-02-17T06:32:32.487Z,1.12
2018-02-17T06:33:34.988Z,1.40
2018-02-17T06:34:37.470Z,1.20
2018-02-17T06:35:39.967Z,1.10
2018-02-17T06:36:42.477Z,1.20
2018-02-17T06:37:44.976Z,1.50
2018-02-17T06:38:47.439Z,1.30
2018-02-17T06:39:49.978Z,1.15
2018-02-17T06:40:52.483Z,1.23
2018-02-17T06:41:54.975Z,1.30
2018-02-17T06:42:57.464Z,1.30
2018-02-17T06:43:59.952Z,1.45
2018-02-17T06:45:02.438Z,1.33
2018-02-17T06:46:04.926Z,1.30
2018-02-17T06:47:07.444Z,1.10
2018-02-17T06:48:09.911Z,1.17
2018-02-17T06:49:12.380Z,1.10
2018-02-17T06:50:14.871Z,1.25
2018-02-17T06:51:17.347Z,1.20
2018-02-17T06:52:19.843Z,1.20
2018-02-17T06:53:22.335Z,1.48
2018-02-17T06:54:24.820Z,1.33
2018-02-17T06:55:27.303Z,1.40
2018-02-17T06:56:29.767Z,0.90
2018-02-17T06:57:32.262Z,1.40
2018-02-17T06:58:34.731Z,1.30
2018-02-17T06:59:37.217Z,1.35
2018-02-17T07:00:39.696Z,1.17
2018-02-17T07:01:42.175Z,1.10
2018-02-17T07:02:44.663Z,1.17
2018-02-17T07:03:47.145Z,1.30
2018-02-17T07:04:49.629Z,1.30
2018-02-17T07:05:52.121Z,1.20
2018-02-17T07:06:54.608Z,1.10
2018-02-17T07:07:57.110Z,1.10
2018-02-17T07:08:59.601Z,1.30
2018-02-17T07:10:02.077Z,1.35
2018-02-17T07:11:04.564Z,0.95
2018-02-17T07:12:07.040Z,1.00
2018-02-17T07:13:09.541Z,1.20
2018-02-17T07:14:12.024Z,1.37
2018-02-17T07:15:14.508Z,1.30
2018-02-17T07:16:17.005Z,1.20
2018-02-17T07:17:19.517Z,1.42
2018-02-17T07:18:22.017Z,1.10
2018-02-17T07:19:24.523Z,1.02
2018-02-17T07:20:27.006Z,1.17
2018-02-17T07:21:29.478Z,1.30
2018-02-17T07:22:31.943Z,1.03
2018-02-17T07:23:34.453Z,1.15
2018-02-17T07:24:36.932Z,1.20
2018-02-17T07:25:39.445Z,1.10
2018-02-17T07:26:41.949Z,1.25
2018-02-17T07:27:44.441Z,1.00
2018-02-17T07:28:46.959Z,1.52
2018-02-17T07:29:49.431Z,1.35
2018-02-17T07:30:51.911Z,1.10
2018-02-17T07:31:54.388Z,0.93
2018-02-17T07:32:56.865Z,1.10
2018-02-17T07:33:59.355Z,1.20
2018-02-17T07:35:01.888Z,1.02
2018-02-17T07:36:04.439Z,1.40
2018-02-17T07:37:06.919Z,1.33
2018-02-17T07:38:09.404Z,1.33
2018-02-17T07:39:11.918Z,1.10
2018-02-17T07:40:14.406Z,1.10
2018-02-17T07:41:16.880Z,1.00
2018-02-17T07:42:19.338Z,1.20
2018-02-17T07:43:21.815Z,1.40
2018-02-17T07:44:24.322Z,1.00
2018-02-17T07:45:26.810Z,1.45
2018-02-17T07:46:29.284Z,1.05
2018-02-17T07:47:31.814Z,1.10
2018-02-17T07:48:34.292Z,1.27
2018-02-17T07:49:36.795Z,1.17
2018-02-17T07:50:39.307Z,1.10
2018-02-17T07:51:41.779Z,1.70
2018-02-17T07:52:44.266Z,1.65
2018-02-17T07:53:46.745Z,2.03
2018-02-17T07:54:49.254Z,1.80
2018-02-17T07:55:51.724Z,1.90
2018-02-17T07:56:54.218Z,1.90
2018-02-17T07:57:56.721Z,2.30
2018-02-17T07:58:59.190Z,2.07
2018-02-17T08:00:01.690Z,2.30
2018-02-17T08:01:05.374Z,2.40
2018-02-17T08:02:07.865Z,2.50
2018-02-17T08:03:10.343Z,2.00
2018-02-17T08:04:12.887Z,3.08
2018-02-17T08:05:15.407Z,2.83
2018-02-17T08:06:17.900Z,3.10
2018-02-17T08:07:20.394Z,3.00
2018-02-17T08:08:22.886Z,3.10
2018-02-17T08:09:25.405Z,2.78
2018-02-17T08:10:27.930Z,3.45
2018-02-17T08:11:30.591Z,3.58
2018-02-17T08:12:33.101Z,3.17
2018-02-17T08:13:35.584Z,3.55
2018-02-17T08:14:38.174Z,3.00
2018-02-17T08:15:40.669Z,4.90
2018-02-17T08:16:43.169Z,3.35
2018-02-17T08:17:45.660Z,3.30
2018-02-17T08:18:48.144Z,3.12
2018-02-17T08:19:50.637Z,3.78
2018-02-17T08:20:53.119Z,3.53
2018-02-17T08:21:55.603Z,3.55
2018-02-17T08:22:58.093Z,3.53
2018-02-17T08:24:00.567Z,3.40
2018-02-17T08:25:03.065Z,3.40
2018-02-17T08:26:05.561Z,3.22
2018-02-17T08:27:08.045Z,3.60
2018-02-17T08:28:10.575Z,3.20
2018-02-17T08:29:13.449Z,3.35
2018-02-17T08:30:15.926Z,2.55
2018-02-17T08:31:18.414Z,2.85
2018-02-17T08:32:20.919Z,2.90
2018-02-17T08:33:23.401Z,3.10
2018-02-17T08:34:25.930Z,2.70
2018-02-17T08:35:28.408Z,2.97
2018-02-17T08:36:30.896Z,2.85
2018-02-17T08:37:33.386Z,2.85
2018-02-17T08:38:35.863Z,2.70
2018-02-17T08:39:38.486Z,3.87
2018-02-17T08:40:40.971Z,3.12
2018-02-17T08:41:43.465Z,3.05
2018-02-17T08:42:45.963Z,2.75
2018-02-17T08:43:48.445Z,2.92
2018-02-17T08:44:50.933Z,2.70
2018-02-17T08:45:53.422Z,3.25
2018-02-17T08:46:56.054Z,2.30
2018-02-17T08:47:58.563Z,2.97
2018-02-17T08:49:01.165Z,2.50
2018-02-17T08:50:03.718Z,2.70
2018-02-17T08:51:06.225Z,2.70
2018-02-17T08:52:08.711Z,2.25
2018-02-17T08:53:11.360Z,2.33
2018-02-17T08:54:13.864Z,2.75
2018-02-17T08:55:16.349Z,2.40
2018-02-17T08:56:18.827Z,2.50
2018-02-17T08:57:21.295Z,2.80
2018-02-17T08:58:23.775Z,2.35
2018-02-17T08:59:26.256Z,2.30
2018-02-17T09:00:28.757Z,2.25
2018-02-17T09:01:31.243Z,2.37
2018-02-17T09:02:33.735Z,2.87
2018-02-17T09:03:36.241Z,2.67
2018-02-17T09:04:38.748Z,2.03
2018-02-17T09:05:41.245Z,2.37
2018-02-17T09:06:43.724Z,2.10
2018-02-17T09:07:46.217Z,2.17
2018-02-17T09:08:48.695Z,2.58
2018-02-17T09:09:51.177Z,2.33
2018-02-17T09:10:53.769Z,2.60
2018-02-17T09:11:56.357Z,2.22
2018-02-17T09:12:58.845Z,2.50
2018-02-17T09:14:01.319Z,2.10
2018-02-17T09:15:03.906Z,2.33
2018-02-17T09:16:06.387Z,2.80
2018-02-17T09:17:08.977Z,2.30
2018-02-17T09:18:11.553Z,2.12
2018-02-17T09:19:14.067Z,2.10
2018-02-17T09:20:16.553Z,2.20
2018-02-17T09:21:19.048Z,2.10
2018-02-17T09:22:21.520Z,2.72
2018-02-17T09:23:24.009Z,3.00
2018-02-17T09:24:26.807Z,2.20
2018-02-17T09:25:29.293Z,2.30
2018-02-17T09:26:31.778Z,2.67
2018-02-17T09:27:34.290Z,2.70
2018-02-17T09:28:37.216Z,2.40
2018-02-17T09:29:39.747Z,2.60
2018-02-17T09:30:42.549Z,2.40
2018-02-17T09:31:45.575Z,2.50
2018-02-17T09:32:48.074Z,2.83
2018-02-17T09:33:50.547Z,2.20
2018-02-17T09:34:53.015Z,2.00
2018-02-17T09:35:55.475Z,2.50
2018-02-17T09:36:57.935Z,2.40
2018-02-17T09:38:00.417Z,2.40
2018-02-17T09:39:02.925Z,2.27
2018-02-17T09:40:05.405Z,2.40
2018-02-17T09:41:07.886Z,2.50
2018-02-17T09:42:10.356Z,2.15
2018-02-17T09:43:12.860Z,2.07
2018-02-17T09:44:15.355Z,2.40
2018-02-17T09:45:17.825Z,2.60
2018-02-17T09:46:20.319Z,2.47
2018-02-17T09:47:22.781Z,2.80
2018-02-17T09:48:25.262Z,2.60
2018-02-17T09:49:27.836Z,2.33
2018-02-17T09:50:30.311Z,2.53
2018-02-17T09:51:32.820Z,2.23
2018-02-17T09:52:35.320Z,2.50
2018-02-17T09:53:37.938Z,2.22
2018-02-17T09:54:40.431Z,2.33
2018-02-17T09:55:42.907Z,2.62
2018-02-17T09:56:45.546Z,2.25
2018-02-17T09:57:48.057Z,2.10
2018-02-17T09:58:50.543Z,2.53
2018-02-17T09:59:53.057Z,2.50
2018-02-17T10:00:55.543Z,2.65
2018-02-17T10:01:58.030Z,3.03
2018-02-17T10:03:00.511Z,2.20
2018-02-17T10:04:03.009Z,2.42
2018-02-17T10:05:05.512Z,2.67
2018-02-17T10:06:07.987Z,2.75
2018-02-17T10:07:10.481Z,2.72
2018-02-17T10:08:12.954Z,2.90
2018-02-17T10:09:15.515Z,2.83
2018-02-17T10:10:17.992Z,2.10
2018-02-17T10:11:20.497Z,2.30
2018-02-17T10:12:22.981Z,2.50
2018-02-17T10:13:25.474Z,2.70
2018-02-17T10:14:27.967Z,2.30
2018-02-17T10:15:30.444Z,2.53
2018-02-17T10:16:32.912Z,2.17
2018-02-17T10:17:35.419Z,2.85
2018-02-17T10:18:37.907Z,2.53
2018-02-17T10:19:40.423Z,2.78
2018-02-17T10:20:42.896Z,2.00
2018-02-17T10:21:45.432Z,2.70
2018-02-17T10:22:47.967Z,2.00
2018-02-17T10:23:50.457Z,2.40
2018-02-17T10:24:52.945Z,2.33
2018-02-17T10:25:55.446Z,2.35
2018-02-17T10:26:57.971Z,2.50
2018-02-17T10:28:00.474Z,2.40
2018-02-17T10:29:02.967Z,2.00
2018-02-17T10:30:05.455Z,3.00
2018-02-17T10:31:07.943Z,2.22
2018-02-17T10:32:10.432Z,2.63
2018-02-17T10:33:12.932Z,2.40
2018-02-17T10:34:15.408Z,2.55
2018-02-17T10:35:17.976Z,2.28
2018-02-17T10:36:20.458Z,2.37
2018-02-17T10:37:22.946Z,2.17
2018-02-17T10:38:25.482Z,2.60
2018-02-17T10:39:27.943Z,2.93
2018-02-17T10:40:30.430Z,2.57
2018-02-17T10:41:32.953Z,2.27
2018-02-17T10:42:35.399Z,2.53
2018-02-17T10:43:37.879Z,2.33
2018-02-17T10:44:40.414Z,2.40
2018-02-17T10:45:42.931Z,2.80
2018-02-17T10:46:45.448Z,2.60
2018-02-17T10:47:47.938Z,2.70
2018-02-17T10:48:50.423Z,2.80
2018-02-17T10:49:52.888Z,2.17
2018-02-17T10:50:55.361Z,2.63
2018-02-17T10:51:57.854Z,2.78
2018-02-17T10:53:00.343Z,2.45
2018-02-17T10:54:02.841Z,2.40
2018-02-17T10:55:05.316Z,2.80
2018-02-17T10:56:07.791Z,2.87
2018-02-17T10:57:10.283Z,2.80
2018-02-17T10:58:12.778Z,2.70
2018-02-17T10:59:15.247Z,2.80
2018-02-17T11:00:17.724Z,2.30
2018-02-17T11:01:20.208Z,3.30
2018-02-17T11:02:22.693Z,3.13
2018-02-17T11:03:25.189Z,2.50
2018-02-17T11:04:27.656Z,2.83
2018-02-17T11:05:30.119Z,3.07
2018-02-17T11:06:32.584Z,2.93
2018-02-17T11:07:35.072Z,3.15
2018-02-17T11:08:37.551Z,3.12
2018-02-17T11:09:40.039Z,2.90
2018-02-17T11:10:42.521Z,2.80
2018-02-17T11:11:45.060Z,2.92
2018-02-17T11:12:47.587Z,3.33
2018-02-17T11:13:50.067Z,3.20
2018-02-17T11:14:52.562Z,3.20
2018-02-17T11:15:55.065Z,3.40
2018-02-17T11:16:57.547Z,3.20
2018-02-17T11:18:00.034Z,3.33
2018-02-17T11:19:02.501Z,3.30
2018-02-17T11:20:05.009Z,2.92
2018-02-17T11:21:07.497Z,3.30
2018-02-17T11:22:09.990Z,3.20
2018-02-17T11:23:12.492Z,3.20
2018-02-17T11:24:14.959Z,3.23
2018-02-17T11:25:17.432Z,3.10
2018-02-17T11:26:19.913Z,3.07
2018-02-17T11:27:22.450Z,3.00
2018-02-17T11:28:24.914Z,2.50
2018-02-17T11:29:27.394Z,3.00
2018-02-17T11:30:29.885Z,3.23
2018-02-17T11:31:32.351Z,3.03
2018-02-17T11:32:34.835Z,3.20
2018-02-17T11:33:37.304Z,3.20
2018-02-17T11:34:39.817Z,3.20
2018-02-17T11:35:42.386Z,3.30
2018-02-17T11:36:44.854Z,2.97
2018-02-17T11:37:47.389Z,2.90
2018-02-17T11:38:49.831Z,3.22
2018-02-17T11:39:52.295Z,4.00
2018-02-17T11:40:54.786Z,2.77
2018-02-17T11:41:57.267Z,3.00
2018-02-17T11:42:59.852Z,3.30
2018-02-17T11:44:02.332Z,2.83
2018-02-17T11:45:04.804Z,2.90
2018-02-17T11:46:07.316Z,3.03
2018-02-17T11:47:09.782Z,3.40
2018-02-17T11:48:12.269Z,2.47
2018-02-17T11:49:14.742Z,3.60
2018-02-17T11:50:17.219Z,3.08
2018-02-17T11:51:19.687Z,3.27
2018-02-17T11:52:22.179Z,3.25
2018-02-17T11:53:24.656Z,2.97
2018-02-17T11:54:27.157Z,3.30
2018-02-17T11:55:29.632Z,3.35
2018-02-17T11:56:32.113Z,3.30
2018-02-17T11:57:34.593Z,3.00
2018-02-17T11:58:37.075Z,3.07
2018-02-17T11:59:39.569Z,3.20
2018-02-17T12:00:42.079Z,3.60
2018-02-17T12:01:44.553Z,3.50
2018-02-17T12:02:47.036Z,4.12
2018-02-17T12:03:49.509Z,3.80
2018-02-17T12:04:51.999Z,4.90
2018-02-17T12:05:54.497Z,4.53
2018-02-17T12:06:57.001Z,5.03
2018-02-17T12:07:59.502Z,4.87
2018-02-17T12:09:01.969Z,4.80
2018-02-17T12:10:04.458Z,4.70
2018-02-17T12:11:06.953Z,4.68
2018-02-17T12:12:09.451Z,4.75
2018-02-17T12:13:11.945Z,4.43
2018-02-17T12:14:14.422Z,4.43
2018-02-17T12:15:16.896Z,4.67
2018-02-17T12:16:19.385Z,4.57
2018-02-17T12:17:21.862Z,4.47
2018-02-17T12:18:24.362Z,4.30
2018-02-17T12:19:26.838Z,4.72
2018-02-17T12:20:29.340Z,4.70
2018-02-17T12:21:31.819Z,4.12
2018-02-17T12:22:34.383Z,4.57
2018-02-17T12:23:36.875Z,4.68
2018-02-17T12:24:39.377Z,4.03
2018-02-17T12:25:41.874Z,4.00
2018-02-17T12:26:44.373Z,4.50
2018-02-17T12:27:46.901Z,4.07
2018-02-17T12:28:49.374Z,5.00
2018-02-17T12:29:51.850Z,5.00
2018-02-17T12:30:54.377Z,4.03
2018-02-17T12:31:56.889Z,4.70
2018-02-17T12:33:01.296Z,3.85
2018-02-17T12:34:04.540Z,4.20
2018-02-17T12:35:07.016Z,3.97
2018-02-17T12:36:09.501Z,4.57
2018-02-17T12:37:11.990Z,4.47
2018-02-17T12:38:14.496Z,3.97
2018-02-17T12:39:16.976Z,4.45
2018-02-17T12:40:19.450Z,4.40
2018-02-17T12:41:21.971Z,4.45
2018-02-17T12:42:24.443Z,4.10
2018-02-17T12:43:26.938Z,3.93
2018-02-17T12:44:29.425Z,4.20
2018-02-17T12:45:31.921Z,4.25
2018-02-17T12:46:34.402Z,4.20
2018-02-17T12:47:36.894Z,4.22
2018-02-17T12:48:39.367Z,4.27
2018-02-17T12:49:41.860Z,3.97
2018-02-17T12:50:44.336Z,4.30
2018-02-17T12:51:46.813Z,3.90
2018-02-17T12:52:49.380Z,3.80
2018-02-17T12:53:51.899Z,4.00
2018-02-17T12:54:54.409Z,4.03
2018-02-17T12:55:56.910Z,4.05
2018-02-17T12:56:59.403Z,4.45
2018-02-17T12:58:01.894Z,4.47
2018-02-17T12:59:04.377Z,3.80
2018-02-17T13:00:06.859Z,3.90
2018-02-17T13:01:09.335Z,3.40
2018-02-17T13:02:11.812Z,4.00
2018-02-17T13:03:14.313Z,3.60
2018-02-17T13:04:16.801Z,3.33
2018-02-17T13:05:19.281Z,3.67
2018-02-17T13:06:21.813Z,4.10
2018-02-17T13:07:24.303Z,3.43
2018-02-17T13:08:26.786Z,4.20
2018-02-17T13:09:29.259Z,3.63
2018-02-17T13:10:31.847Z,3.97
2018-02-17T13:11:34.396Z,3.60
2018-02-17T13:12:36.867Z,3.67
2018-02-17T13:13:39.449Z,3.53
2018-02-17T13:14:41.897Z,3.73
2018-02-17T13:15:44.378Z,3.37
2018-02-17T13:16:46.863Z,3.20
2018-02-17T13:17:49.327Z,3.13
2018-02-17T13:18:51.796Z,3.80
2018-02-17T13:19:54.285Z,3.17
2018-02-17T13:20:56.756Z,3.20
2018-02-17T13:21:59.239Z,3.70
2018-02-17T13:23:01.709Z,4.00
2018-02-17T13:24:04.193Z,3.50
2018-02-17T13:25:06.674Z,3.07
2018-02-17T13:26:09.149Z,3.77
2018-02-17T13:27:11.629Z,3.37
2018-02-17T13:28:24.123Z,3.50
2018-02-17T13:29:26.606Z,4.00
2018-02-17T13:30:29.086Z,4.20
2018-02-17T13:31:31.569Z,3.20
2018-02-17T13:32:34.036Z,3.27
2018-02-17T13:33:36.513Z,4.10
2018-02-17T13:34:38.995Z,2.87
2018-02-17T13:35:41.484Z,3.70
2018-02-17T13:36:43.980Z,3.20
2018-02-17T13:37:46.457Z,3.10
2018-02-17T13:38:48.931Z,3.33
2018-02-17T13:39:51.413Z,3.57
2018-02-17T13:40:53.880Z,2.93
2018-02-17T13:41:56.379Z,3.20
2018-02-17T13:42:58.839Z,3.03
2018-02-17T13:44:01.303Z,3.17
2018-02-17T13:45:03.781Z,3.60
2018-02-17T13:46:06.251Z,3.37
2018-02-17T13:47:08.735Z,2.80
2018-02-17T13:48:11.232Z,3.83
2018-02-17T13:49:13.726Z,2.97
2018-02-17T13:50:16.217Z,3.45
2018-02-17T13:51:18.714Z,3.20
2018-02-17T13:52:21.196Z,2.60
2018-02-17T13:53:23.685Z,3.58
2018-02-17T13:54:26.176Z,3.70
2018-02-17T13:55:28.665Z,3.30
2018-02-17T13:56:31.208Z,3.00
2018-02-17T13:57:33.689Z,3.10
2018-02-17T13:58:36.158Z,3.30
2018-02-17T13:59:38.667Z,3.47
2018-02-17T14:00:41.193Z,3.10
2018-02-17T14:01:43.696Z,3.78
2018-02-17T14:02:46.213Z,3.10
2018-02-17T14:03:48.681Z,3.27
2018-02-17T14:04:51.169Z,3.10
2018-02-17T14:05:53.670Z,3.30
2018-02-17T14:06:56.178Z,3.10